Terminal Aerodrome Forecast
Issued by NWS

Home | Current Version | Previous Version | Text Only | Print | Product List | Glossary On
Versions: 1 2 3 4 5 6 7 8 9 10 11 12 13 14 15
000
FTUS43 KMQT 240900 AAA
TAFIWD
TAF AMD
KIWD 240901Z 2409/2506 18004KT P6SM OVC005
      TEMPO 2409/2413 SCT005
     FM241300 20007KT P6SM SCT200
     FM241700 21010G16KT P6SM SCT120
      AMD LTD TO CLD VIS AND WIND=

USA.gov is the U.S. government's official web portal to all federal, state and local government web resources and services.